sensor_id;sensor_type;location;lat;lon;timestamp;P1;durP1;ratioP1;P2;durP2;ratioP2
56511;SDS011;42408;53.238;5.686;2022-07-23T00:00:33;8.33;;;3.23;;
56511;SDS011;42408;53.238;5.686;2022-07-23T00:02:59;6.22;;;3.22;;
56511;SDS011;42408;53.238;5.686;2022-07-23T00:05:24;7.20;;;3.60;;
56511;SDS011;42408;53.238;5.686;2022-07-23T00:07:50;7.00;;;3.10;;
56511;SDS011;42408;53.238;5.686;2022-07-23T00:10:16;8.00;;;3.63;;
56511;SDS011;42408;53.238;5.686;2022-07-23T00:12:42;6.35;;;3.38;;
56511;SDS011;42408;53.238;5.686;2022-07-23T00:15:08;7.10;;;3.50;;
56511;SDS011;42408;53.238;5.686;2022-07-23T00:20:00;5.82;;;3.28;;
56511;SDS011;42408;53.238;5.686;2022-07-23T00:22:26;5.40;;;3.00;;
56511;SDS011;42408;53.238;5.686;2022-07-23T00:27:18;9.50;;;4.32;;
56511;SDS011;42408;53.238;5.686;2022-07-23T00:29:44;7.50;;;4.03;;
56511;SDS011;42408;53.238;5.686;2022-07-23T00:32:09;7.93;;;4.50;;
56511;SDS011;42408;53.238;5.686;2022-07-23T00:34:35;8.10;;;4.27;;
56511;SDS011;42408;53.238;5.686;2022-07-23T00:37:00;7.37;;;4.00;;
56511;SDS011;42408;53.238;5.686;2022-07-23T00:39:26;9.10;;;4.60;;
56511;SDS011;42408;53.238;5.686;2022-07-23T00:41:52;7.00;;;4.53;;
56511;SDS011;42408;53.238;5.686;2022-07-23T00:44:18;8.60;;;4.27;;
56511;SDS011;42408;53.238;5.686;2022-07-23T00:46:50;9.75;;;5.30;;
56511;SDS011;42408;53.238;5.686;2022-07-23T00:49:21;6.88;;;4.65;;
56511;SDS011;42408;53.238;5.686;2022-07-23T00:51:48;9.25;;;4.32;;
56511;SDS011;42408;53.238;5.686;2022-07-23T00:54:14;8.45;;;4.80;;
56511;SDS011;42408;53.238;5.686;2022-07-23T00:59:08;7.63;;;4.47;;
56511;SDS011;42408;53.238;5.686;2022-07-23T01:01:33;8.50;;;5.17;;
56511;SDS011;42408;53.238;5.686;2022-07-23T01:04:00;9.87;;;4.77;;
56511;SDS011;42408;53.238;5.686;2022-07-23T01:06:26;10.65;;;5.35;;
56511;SDS011;42408;53.238;5.686;2022-07-23T01:08:52;9.37;;;5.83;;
56511;SDS011;42408;53.238;5.686;2022-07-23T01:11:19;7.80;;;4.72;;
56511;SDS011;42408;53.238;5.686;2022-07-23T01:13:45;8.47;;;4.87;;
56511;SDS011;42408;53.238;5.686;2022-07-23T01:16:10;10.17;;;4.93;;
56511;SDS011;42408;53.238;5.686;2022-07-23T01:18:36;9.53;;;5.37;;
56511;SDS011;42408;53.238;5.686;2022-07-23T01:21:02;8.93;;;4.83;;
56511;SDS011;42408;53.238;5.686;2022-07-23T01:23:28;7.27;;;5.13;;
56511;SDS011;42408;53.238;5.686;2022-07-23T01:25:54;8.03;;;4.50;;
56511;SDS011;42408;53.238;5.686;2022-07-23T01:28:20;8.10;;;5.45;;
56511;SDS011;42408;53.238;5.686;2022-07-23T01:30:46;7.90;;;5.13;;
56511;SDS011;42408;53.238;5.686;2022-07-23T01:33:12;8.98;;;5.13;;
56511;SDS011;42408;53.238;5.686;2022-07-23T01:35:38;14.97;;;5.33;;
56511;SDS011;42408;53.238;5.686;2022-07-23T01:38:03;7.97;;;4.90;;
56511;SDS011;42408;53.238;5.686;2022-07-23T01:40:29;10.20;;;4.63;;
56511;SDS011;42408;53.238;5.686;2022-07-23T01:42:55;8.03;;;4.60;;
56511;SDS011;42408;53.238;5.686;2022-07-23T01:45:20;8.73;;;5.20;;
56511;SDS011;42408;53.238;5.686;2022-07-23T01:47:46;8.20;;;5.17;;
56511;SDS011;42408;53.238;5.686;2022-07-23T01:50:12;7.50;;;4.18;;
56511;SDS011;42408;53.238;5.686;2022-07-23T01:52:38;8.47;;;4.67;;
56511;SDS011;42408;53.238;5.686;2022-07-23T01:55:03;8.53;;;4.47;;
56511;SDS011;42408;53.238;5.686;2022-07-23T01:57:30;8.88;;;5.07;;
56511;SDS011;42408;53.238;5.686;2022-07-23T01:59:56;10.63;;;5.37;;
56511;SDS011;42408;53.238;5.686;2022-07-23T02:02:22;11.43;;;4.83;;
56511;SDS011;42408;53.238;5.686;2022-07-23T02:04:47;8.67;;;4.80;;
56511;SDS011;42408;53.238;5.686;2022-07-23T02:07:13;6.60;;;4.10;;
56511;SDS011;42408;53.238;5.686;2022-07-23T02:09:39;7.97;;;4.70;;
56511;SDS011;42408;53.238;5.686;2022-07-23T02:12:04;7.47;;;4.27;;
56511;SDS011;42408;53.238;5.686;2022-07-23T02:14:30;10.73;;;4.60;;
56511;SDS011;42408;53.238;5.686;2022-07-23T02:16:56;9.90;;;4.87;;
56511;SDS011;42408;53.238;5.686;2022-07-23T02:19:21;12.17;;;5.50;;
56511;SDS011;42408;53.238;5.686;2022-07-23T02:21:47;9.43;;;4.63;;
56511;SDS011;42408;53.238;5.686;2022-07-23T02:24:14;7.53;;;4.40;;
56511;SDS011;42408;53.238;5.686;2022-07-23T02:26:40;8.27;;;4.72;;
56511;SDS011;42408;53.238;5.686;2022-07-23T02:29:05;8.17;;;4.80;;
56511;SDS011;42408;53.238;5.686;2022-07-23T02:31:32;7.05;;;4.45;;
56511;SDS011;42408;53.238;5.686;2022-07-23T02:33:58;7.55;;;5.07;;
56511;SDS011;42408;53.238;5.686;2022-07-23T02:36:24;9.60;;;4.93;;
56511;SDS011;42408;53.238;5.686;2022-07-23T02:38:49;9.17;;;4.83;;
56511;SDS011;42408;53.238;5.686;2022-07-23T02:41:15;9.57;;;4.50;;
56511;SDS011;42408;53.238;5.686;2022-07-23T02:43:41;8.17;;;4.97;;
56511;SDS011;42408;53.238;5.686;2022-07-23T02:46:06;10.30;;;5.33;;
56511;SDS011;42408;53.238;5.686;2022-07-23T02:48:32;7.80;;;4.67;;
56511;SDS011;42408;53.238;5.686;2022-07-23T02:50:58;7.20;;;4.73;;
56511;SDS011;42408;53.238;5.686;2022-07-23T02:53:24;10.23;;;5.17;;
56511;SDS011;42408;53.238;5.686;2022-07-23T02:55:49;9.10;;;5.33;;
56511;SDS011;42408;53.238;5.686;2022-07-23T02:58:15;8.70;;;4.83;;
56511;SDS011;42408;53.238;5.686;2022-07-23T03:00:41;8.07;;;5.10;;
56511;SDS011;42408;53.238;5.686;2022-07-23T03:03:06;10.70;;;5.10;;
56511;SDS011;42408;53.238;5.686;2022-07-23T03:05:32;9.97;;;5.20;;
56511;SDS011;42408;53.238;5.686;2022-07-23T03:07:58;10.88;;;5.85;;
56511;SDS011;42408;53.238;5.686;2022-07-23T03:10:24;9.13;;;4.90;;
56511;SDS011;42408;53.238;5.686;2022-07-23T03:12:50;8.70;;;4.97;;
56511;SDS011;42408;53.238;5.686;2022-07-23T03:15:15;8.00;;;5.23;;
56511;SDS011;42408;53.238;5.686;2022-07-23T03:17:41;7.97;;;5.27;;
56511;SDS011;42408;53.238;5.686;2022-07-23T03:20:07;9.57;;;4.90;;
56511;SDS011;42408;53.238;5.686;2022-07-23T03:22:33;8.40;;;4.47;;
56511;SDS011;42408;53.238;5.686;2022-07-23T03:24:58;6.50;;;4.40;;
56511;SDS011;42408;53.238;5.686;2022-07-23T03:27:25;7.57;;;4.80;;
56511;SDS011;42408;53.238;5.686;2022-07-23T03:29:53;8.93;;;5.00;;
56511;SDS011;42408;53.238;5.686;2022-07-23T03:32:20;8.68;;;4.68;;
56511;SDS011;42408;53.238;5.686;2022-07-23T03:37:13;6.63;;;3.92;;
56511;SDS011;42408;53.238;5.686;2022-07-23T03:39:39;8.43;;;4.47;;
56511;SDS011;42408;53.238;5.686;2022-07-23T03:42:04;10.50;;;4.87;;
56511;SDS011;42408;53.238;5.686;2022-07-23T03:44:30;9.23;;;4.03;;
56511;SDS011;42408;53.238;5.686;2022-07-23T03:46:56;6.78;;;3.95;;
56511;SDS011;42408;53.238;5.686;2022-07-23T03:49:22;8.27;;;4.00;;
56511;SDS011;42408;53.238;5.686;2022-07-23T03:51:47;7.90;;;4.77;;
56511;SDS011;42408;53.238;5.686;2022-07-23T03:54:13;7.60;;;3.93;;
56511;SDS011;42408;53.238;5.686;2022-07-23T03:56:39;8.00;;;4.33;;
56511;SDS011;42408;53.238;5.686;2022-07-23T03:59:05;8.97;;;4.70;;
56511;SDS011;42408;53.238;5.686;2022-07-23T04:01:30;8.13;;;4.20;;
56511;SDS011;42408;53.238;5.686;2022-07-23T04:03:56;8.23;;;4.63;;
56511;SDS011;42408;53.238;5.686;2022-07-23T04:06:21;10.77;;;4.57;;
56511;SDS011;42408;53.238;5.686;2022-07-23T04:08:47;8.07;;;4.50;;
56511;SDS011;42408;53.238;5.686;2022-07-23T04:11:13;7.83;;;4.30;;
56511;SDS011;42408;53.238;5.686;2022-07-23T04:13:39;7.57;;;4.47;;
56511;SDS011;42408;53.238;5.686;2022-07-23T04:16:04;6.60;;;3.90;;
56511;SDS011;42408;53.238;5.686;2022-07-23T04:18:31;6.68;;;4.22;;
56511;SDS011;42408;53.238;5.686;2022-07-23T04:20:56;6.93;;;3.90;;
56511;SDS011;42408;53.238;5.686;2022-07-23T04:23:22;6.93;;;4.53;;
56511;SDS011;42408;53.238;5.686;2022-07-23T04:25:48;7.57;;;4.00;;
56511;SDS011;42408;53.238;5.686;2022-07-23T04:28:14;8.43;;;4.28;;
56511;SDS011;42408;53.238;5.686;2022-07-23T04:30:39;8.00;;;4.10;;
56511;SDS011;42408;53.238;5.686;2022-07-23T04:33:05;8.47;;;4.40;;
56511;SDS011;42408;53.238;5.686;2022-07-23T04:35:35;7.18;;;3.92;;
56511;SDS011;42408;53.238;5.686;2022-07-23T04:38:01;6.88;;;4.00;;
56511;SDS011;42408;53.238;5.686;2022-07-23T04:40:27;6.50;;;3.90;;
56511;SDS011;42408;53.238;5.686;2022-07-23T04:42:53;6.40;;;3.70;;
56511;SDS011;42408;53.238;5.686;2022-07-23T04:45:19;7.40;;;3.73;;
56511;SDS011;42408;53.238;5.686;2022-07-23T04:47:44;7.40;;;3.90;;
56511;SDS011;42408;53.238;5.686;2022-07-23T04:50:10;7.30;;;3.67;;
56511;SDS011;42408;53.238;5.686;2022-07-23T04:52:36;10.10;;;4.30;;
56511;SDS011;42408;53.238;5.686;2022-07-23T04:55:01;7.70;;;3.27;;
56511;SDS011;42408;53.238;5.686;2022-07-23T04:57:27;9.73;;;3.33;;
56511;SDS011;42408;53.238;5.686;2022-07-23T04:59:53;7.87;;;3.47;;
56511;SDS011;42408;53.238;5.686;2022-07-23T05:02:18;8.60;;;3.10;;
56511;SDS011;42408;53.238;5.686;2022-07-23T05:04:44;6.50;;;3.20;;
56511;SDS011;42408;53.238;5.686;2022-07-23T05:07:09;4.97;;;2.50;;
56511;SDS011;42408;53.238;5.686;2022-07-23T05:09:35;4.47;;;2.53;;
56511;SDS011;42408;53.238;5.686;2022-07-23T05:12:01;8.40;;;2.50;;
56511;SDS011;42408;53.238;5.686;2022-07-23T05:14:26;5.47;;;2.40;;
56511;SDS011;42408;53.238;5.686;2022-07-23T05:16:53;3.70;;;2.30;;
56511;SDS011;42408;53.238;5.686;2022-07-23T05:19:19;5.30;;;2.17;;
56511;SDS011;42408;53.238;5.686;2022-07-23T05:21:45;6.47;;;2.20;;
56511;SDS011;42408;53.238;5.686;2022-07-23T05:24:11;3.40;;;1.90;;
56511;SDS011;42408;53.238;5.686;2022-07-23T05:26:36;3.60;;;1.63;;
56511;SDS011;42408;53.238;5.686;2022-07-23T05:29:02;3.37;;;1.57;;
56511;SDS011;42408;53.238;5.686;2022-07-23T05:31:27;3.57;;;1.60;;
56511;SDS011;42408;53.238;5.686;2022-07-23T05:33:53;3.50;;;1.60;;
56511;SDS011;42408;53.238;5.686;2022-07-23T05:36:19;3.97;;;1.50;;
56511;SDS011;42408;53.238;5.686;2022-07-23T05:38:45;2.97;;;1.67;;
56511;SDS011;42408;53.238;5.686;2022-07-23T05:41:10;3.07;;;1.53;;
56511;SDS011;42408;53.238;5.686;2022-07-23T05:43:36;2.80;;;1.60;;
56511;SDS011;42408;53.238;5.686;2022-07-23T05:46:02;2.37;;;1.43;;
56511;SDS011;42408;53.238;5.686;2022-07-23T05:48:27;3.00;;;1.73;;
56511;SDS011;42408;53.238;5.686;2022-07-23T05:50:53;3.47;;;1.80;;
56511;SDS011;42408;53.238;5.686;2022-07-23T05:53:18;5.23;;;1.63;;
56511;SDS011;42408;53.238;5.686;2022-07-23T05:55:44;3.97;;;1.90;;
56511;SDS011;42408;53.238;5.686;2022-07-23T05:58:10;2.20;;;1.40;;
56511;SDS011;42408;53.238;5.686;2022-07-23T06:00:35;3.37;;;1.93;;
56511;SDS011;42408;53.238;5.686;2022-07-23T06:03:01;3.47;;;1.43;;
56511;SDS011;42408;53.238;5.686;2022-07-23T06:05:26;2.53;;;1.40;;
56511;SDS011;42408;53.238;5.686;2022-07-23T06:07:52;3.10;;;1.60;;
56511;SDS011;42408;53.238;5.686;2022-07-23T06:10:19;2.38;;;1.35;;
56511;SDS011;42408;53.238;5.686;2022-07-23T06:12:44;2.63;;;1.40;;
56511;SDS011;42408;53.238;5.686;2022-07-23T06:15:10;3.30;;;1.60;;
56511;SDS011;42408;53.238;5.686;2022-07-23T06:17:36;2.03;;;1.40;;
56511;SDS011;42408;53.238;5.686;2022-07-23T06:20:04;2.65;;;1.30;;
56511;SDS011;42408;53.238;5.686;2022-07-23T06:22:31;2.10;;;1.20;;
56511;SDS011;42408;53.238;5.686;2022-07-23T06:24:57;2.47;;;1.23;;
56511;SDS011;42408;53.238;5.686;2022-07-23T06:27:22;1.73;;;1.20;;
56511;SDS011;42408;53.238;5.686;2022-07-23T06:29:48;1.80;;;1.10;;
56511;SDS011;42408;53.238;5.686;2022-07-23T06:32:13;3.07;;;1.20;;
56511;SDS011;42408;53.238;5.686;2022-07-23T06:34:39;2.23;;;1.17;;
56511;SDS011;42408;53.238;5.686;2022-07-23T06:37:05;2.07;;;1.30;;
56511;SDS011;42408;53.238;5.686;2022-07-23T06:39:30;2.43;;;1.17;;
56511;SDS011;42408;53.238;5.686;2022-07-23T06:41:56;1.23;;;1.13;;
56511;SDS011;42408;53.238;5.686;2022-07-23T06:44:22;2.33;;;1.20;;
56511;SDS011;42408;53.238;5.686;2022-07-23T06:46:47;1.43;;;1.10;;
56511;SDS011;42408;53.238;5.686;2022-07-23T06:49:13;1.43;;;1.00;;
56511;SDS011;42408;53.238;5.686;2022-07-23T06:51:38;3.10;;;1.07;;
56511;SDS011;42408;53.238;5.686;2022-07-23T06:54:04;1.23;;;1.00;;
56511;SDS011;42408;53.238;5.686;2022-07-23T06:56:30;2.23;;;1.13;;
56511;SDS011;42408;53.238;5.686;2022-07-23T06:58:56;1.67;;;1.10;;
56511;SDS011;42408;53.238;5.686;2022-07-23T07:01:21;3.23;;;1.20;;
56511;SDS011;42408;53.238;5.686;2022-07-23T07:03:47;2.03;;;1.20;;
56511;SDS011;42408;53.238;5.686;2022-07-23T07:06:13;1.80;;;1.20;;
56511;SDS011;42408;53.238;5.686;2022-07-23T07:08:39;4.35;;;1.40;;
56511;SDS011;42408;53.238;5.686;2022-07-23T07:11:05;1.98;;;1.30;;
56511;SDS011;42408;53.238;5.686;2022-07-23T07:13:31;3.67;;;1.40;;
56511;SDS011;42408;53.238;5.686;2022-07-23T07:15:56;2.43;;;1.33;;
56511;SDS011;42408;53.238;5.686;2022-07-23T07:18:22;1.83;;;1.20;;
56511;SDS011;42408;53.238;5.686;2022-07-23T07:20:48;2.63;;;1.20;;
56511;SDS011;42408;53.238;5.686;2022-07-23T07:23:14;1.92;;;1.23;;
56511;SDS011;42408;53.238;5.686;2022-07-23T07:25:39;4.47;;;1.20;;
56511;SDS011;42408;53.238;5.686;2022-07-23T07:28:05;5.57;;;1.63;;
56511;SDS011;42408;53.238;5.686;2022-07-23T07:30:31;3.80;;;1.13;;
56511;SDS011;42408;53.238;5.686;2022-07-23T07:32:56;1.83;;;1.40;;
56511;SDS011;42408;53.238;5.686;2022-07-23T07:35:22;3.23;;;1.50;;
56511;SDS011;42408;53.238;5.686;2022-07-23T07:37:48;2.07;;;1.07;;
56511;SDS011;42408;53.238;5.686;2022-07-23T07:40:13;4.10;;;1.63;;
56511;SDS011;42408;53.238;5.686;2022-07-23T07:42:46;1.43;;;1.00;;
56511;SDS011;42408;53.238;5.686;2022-07-23T07:45:12;2.65;;;1.10;;
56511;SDS011;42408;53.238;5.686;2022-07-23T07:47:37;4.53;;;1.70;;
56511;SDS011;42408;53.238;5.686;2022-07-23T07:50:03;1.73;;;1.20;;
56511;SDS011;42408;53.238;5.686;2022-07-23T07:52:29;4.28;;;1.27;;
56511;SDS011;42408;53.238;5.686;2022-07-23T07:54:55;3.03;;;1.00;;
56511;SDS011;42408;53.238;5.686;2022-07-23T07:57:20;3.87;;;1.50;;
56511;SDS011;42408;53.238;5.686;2022-07-23T07:59:46;2.27;;;1.20;;
56511;SDS011;42408;53.238;5.686;2022-07-23T08:02:11;2.50;;;1.17;;
56511;SDS011;42408;53.238;5.686;2022-07-23T08:04:37;4.43;;;1.27;;
56511;SDS011;42408;53.238;5.686;2022-07-23T08:07:03;3.77;;;1.07;;
56511;SDS011;42408;53.238;5.686;2022-07-23T08:09:28;6.22;;;1.27;;
56511;SDS011;42408;53.238;5.686;2022-07-23T08:11:54;4.03;;;1.33;;
56511;SDS011;42408;53.238;5.686;2022-07-23T08:14:20;2.23;;;1.40;;
56511;SDS011;42408;53.238;5.686;2022-07-23T08:16:45;3.07;;;1.27;;
56511;SDS011;42408;53.238;5.686;2022-07-23T08:19:11;3.03;;;1.43;;
56511;SDS011;42408;53.238;5.686;2022-07-23T08:21:37;5.10;;;1.43;;
56511;SDS011;42408;53.238;5.686;2022-07-23T08:24:02;4.30;;;1.73;;
56511;SDS011;42408;53.238;5.686;2022-07-23T08:26:28;3.00;;;1.40;;
56511;SDS011;42408;53.238;5.686;2022-07-23T08:28:54;2.43;;;1.20;;
56511;SDS011;42408;53.238;5.686;2022-07-23T08:31:19;3.30;;;1.60;;
56511;SDS011;42408;53.238;5.686;2022-07-23T08:33:45;6.33;;;2.00;;
56511;SDS011;42408;53.238;5.686;2022-07-23T08:36:10;5.17;;;1.60;;
56511;SDS011;42408;53.238;5.686;2022-07-23T08:38:36;3.83;;;1.40;;
56511;SDS011;42408;53.238;5.686;2022-07-23T08:41:01;1.93;;;1.23;;
56511;SDS011;42408;53.238;5.686;2022-07-23T08:43:30;3.97;;;1.40;;
56511;SDS011;42408;53.238;5.686;2022-07-23T08:45:58;3.72;;;1.48;;
56511;SDS011;42408;53.238;5.686;2022-07-23T08:48:27;1.63;;;1.40;;
56511;SDS011;42408;53.238;5.686;2022-07-23T08:50:57;11.68;;;2.00;;
56511;SDS011;42408;53.238;5.686;2022-07-23T08:53:24;3.67;;;1.42;;
56511;SDS011;42408;53.238;5.686;2022-07-23T08:55:52;3.40;;;1.30;;
56511;SDS011;42408;53.238;5.686;2022-07-23T08:58:19;1.90;;;1.23;;
56511;SDS011;42408;53.238;5.686;2022-07-23T09:00:45;2.50;;;1.58;;
56511;SDS011;42408;53.238;5.686;2022-07-23T09:03:19;4.20;;;1.45;;
56511;SDS011;42408;53.238;5.686;2022-07-23T09:05:46;2.30;;;1.38;;
56511;SDS011;42408;53.238;5.686;2022-07-23T09:08:14;3.85;;;1.40;;
56511;SDS011;42408;53.238;5.686;2022-07-23T09:10:46;2.50;;;1.35;;
56511;SDS011;42408;53.238;5.686;2022-07-23T09:13:31;5.35;;;1.30;;
56511;SDS011;42408;53.238;5.686;2022-07-23T09:16:00;3.50;;;1.48;;
56511;SDS011;42408;53.238;5.686;2022-07-23T09:18:48;4.70;;;1.70;;
56511;SDS011;42408;53.238;5.686;2022-07-23T09:26:21;3.53;;;1.33;;
56511;SDS011;42408;53.238;5.686;2022-07-23T09:28:57;2.88;;;1.40;;
56511;SDS011;42408;53.238;5.686;2022-07-23T09:36:47;5.35;;;1.60;;
56511;SDS011;42408;53.238;5.686;2022-07-23T09:41:46;4.03;;;1.20;;
56511;SDS011;42408;53.238;5.686;2022-07-23T09:44:14;3.60;;;1.58;;
56511;SDS011;42408;53.238;5.686;2022-07-23T09:46:44;3.13;;;1.10;;
56511;SDS011;42408;53.238;5.686;2022-07-23T09:49:13;3.25;;;1.50;;
56511;SDS011;42408;53.238;5.686;2022-07-23T09:51:53;2.65;;;1.40;;
56511;SDS011;42408;53.238;5.686;2022-07-23T09:56:50;2.45;;;1.42;;
56511;SDS011;42408;53.238;5.686;2022-07-23T09:59:17;3.13;;;1.27;;
56511;SDS011;42408;53.238;5.686;2022-07-23T10:01:47;3.83;;;1.40;;
56511;SDS011;42408;53.238;5.686;2022-07-23T10:04:13;4.32;;;1.30;;
56511;SDS011;42408;53.238;5.686;2022-07-23T10:06:39;1.92;;;1.35;;
56511;SDS011;42408;53.238;5.686;2022-07-23T10:09:08;2.85;;;1.30;;
56511;SDS011;42408;53.238;5.686;2022-07-23T10:11:37;4.32;;;1.30;;
56511;SDS011;42408;53.238;5.686;2022-07-23T10:14:03;4.05;;;1.17;;
56511;SDS011;42408;53.238;5.686;2022-07-23T10:16:30;2.75;;;1.30;;
56511;SDS011;42408;53.238;5.686;2022-07-23T10:18:57;1.58;;;1.27;;
56511;SDS011;42408;53.238;5.686;2022-07-23T10:24:16;3.80;;;1.20;;
56511;SDS011;42408;53.238;5.686;2022-07-23T10:30:00;5.55;;;1.40;;
56511;SDS011;42408;53.238;5.686;2022-07-23T10:37:51;2.53;;;1.20;;
56511;SDS011;42408;53.238;5.686;2022-07-23T10:45:24;3.58;;;1.40;;
56511;SDS011;42408;53.238;5.686;2022-07-23T10:48:16;1.55;;;1.17;;
56511;SDS011;42408;53.238;5.686;2022-07-23T10:50:45;3.28;;;1.33;;
56511;SDS011;42408;53.238;5.686;2022-07-23T10:59:30;2.13;;;1.48;;
56511;SDS011;42408;53.238;5.686;2022-07-23T11:02:20;2.40;;;1.20;;
56511;SDS011;42408;53.238;5.686;2022-07-23T11:04:49;2.13;;;1.38;;
56511;SDS011;42408;53.238;5.686;2022-07-23T11:07:15;1.83;;;1.20;;
56511;SDS011;42408;53.238;5.686;2022-07-23T11:09:42;2.63;;;1.33;;
56511;SDS011;42408;53.238;5.686;2022-07-23T11:17:31;2.97;;;1.20;;
56511;SDS011;42408;53.238;5.686;2022-07-23T11:20:19;2.03;;;1.23;;
56511;SDS011;42408;53.238;5.686;2022-07-23T11:22:47;4.30;;;1.20;;
56511;SDS011;42408;53.238;5.686;2022-07-23T11:27:47;1.98;;;1.10;;
56511;SDS011;42408;53.238;5.686;2022-07-23T11:31:14;2.92;;;1.20;;
56511;SDS011;42408;53.238;5.686;2022-07-23T11:35:36;3.90;;;1.40;;
56511;SDS011;42408;53.238;5.686;2022-07-23T11:38:06;3.15;;;1.20;;
56511;SDS011;42408;53.238;5.686;2022-07-23T11:40:36;2.60;;;1.10;;
56511;SDS011;42408;53.238;5.686;2022-07-23T11:43:03;3.50;;;1.23;;
56511;SDS011;42408;53.238;5.686;2022-07-23T11:45:36;3.30;;;1.25;;
56511;SDS011;42408;53.238;5.686;2022-07-23T11:48:05;2.03;;;1.10;;
56511;SDS011;42408;53.238;5.686;2022-07-23T11:50:33;4.68;;;1.25;;
56511;SDS011;42408;53.238;5.686;2022-07-23T11:52:59;2.35;;;1.20;;
56511;SDS011;42408;53.238;5.686;2022-07-23T11:55:25;2.80;;;1.20;;
56511;SDS011;42408;53.238;5.686;2022-07-23T11:57:52;2.65;;;1.30;;
56511;SDS011;42408;53.238;5.686;2022-07-23T12:00:19;2.40;;;1.27;;
56511;SDS011;42408;53.238;5.686;2022-07-23T12:02:47;1.48;;;1.20;;
56511;SDS011;42408;53.238;5.686;2022-07-23T12:05:23;2.97;;;1.30;;
56511;SDS011;42408;53.238;5.686;2022-07-23T12:07:51;1.70;;;1.25;;
56511;SDS011;42408;53.238;5.686;2022-07-23T12:10:21;2.47;;;1.20;;
56511;SDS011;42408;53.238;5.686;2022-07-23T12:12:52;2.75;;;1.23;;
56511;SDS011;42408;53.238;5.686;2022-07-23T12:15:23;2.13;;;1.20;;
56511;SDS011;42408;53.238;5.686;2022-07-23T12:17:58;1.90;;;1.17;;
56511;SDS011;42408;53.238;5.686;2022-07-23T12:20:26;3.28;;;1.35;;
56511;SDS011;42408;53.238;5.686;2022-07-23T12:22:58;4.35;;;1.40;;
56511;SDS011;42408;53.238;5.686;2022-07-23T12:25:26;2.42;;;1.30;;
56511;SDS011;42408;53.238;5.686;2022-07-23T12:30:34;3.42;;;1.70;;
56511;SDS011;42408;53.238;5.686;2022-07-23T12:33:02;1.73;;;1.00;;
56511;SDS011;42408;53.238;5.686;2022-07-23T12:35:33;2.60;;;1.35;;
56511;SDS011;42408;53.238;5.686;2022-07-23T12:38:06;4.70;;;1.73;;
56511;SDS011;42408;53.238;5.686;2022-07-23T12:40:44;3.42;;;1.35;;
56511;SDS011;42408;53.238;5.686;2022-07-23T12:43:11;3.57;;;1.50;;
56511;SDS011;42408;53.238;5.686;2022-07-23T12:48:23;3.58;;;1.52;;
56511;SDS011;42408;53.238;5.686;2022-07-23T12:50:50;2.50;;;1.30;;
56511;SDS011;42408;53.238;5.686;2022-07-23T12:53:25;5.75;;;1.75;;
56511;SDS011;42408;53.238;5.686;2022-07-23T12:56:00;2.67;;;1.52;;
56511;SDS011;42408;53.238;5.686;2022-07-23T12:58:39;3.53;;;1.30;;
56511;SDS011;42408;53.238;5.686;2022-07-23T13:01:06;2.53;;;1.42;;
56511;SDS011;42408;53.238;5.686;2022-07-23T13:03:33;2.47;;;1.20;;
56511;SDS011;42408;53.238;5.686;2022-07-23T13:06:02;2.20;;;1.25;;
56511;SDS011;42408;53.238;5.686;2022-07-23T13:08:29;2.85;;;1.38;;
56511;SDS011;42408;53.238;5.686;2022-07-23T13:10:57;2.88;;;1.60;;
56511;SDS011;42408;53.238;5.686;2022-07-23T13:15:50;4.85;;;1.52;;
56511;SDS011;42408;53.238;5.686;2022-07-23T13:18:16;3.45;;;1.73;;
56511;SDS011;42408;53.238;5.686;2022-07-23T13:20:44;3.70;;;1.88;;
56511;SDS011;42408;53.238;5.686;2022-07-23T13:23:10;5.32;;;1.80;;
56511;SDS011;42408;53.238;5.686;2022-07-23T13:28:02;4.53;;;1.80;;
56511;SDS011;42408;53.238;5.686;2022-07-23T13:30:28;4.65;;;2.00;;
56511;SDS011;42408;53.238;5.686;2022-07-23T13:32:54;2.80;;;1.60;;
56511;SDS011;42408;53.238;5.686;2022-07-23T13:35:19;4.22;;;1.95;;
56511;SDS011;42408;53.238;5.686;2022-07-23T13:37:45;4.00;;;1.52;;
56511;SDS011;42408;53.238;5.686;2022-07-23T13:40:11;5.00;;;1.67;;
56511;SDS011;42408;53.238;5.686;2022-07-23T13:42:37;4.00;;;1.77;;
56511;SDS011;42408;53.238;5.686;2022-07-23T13:45:03;3.53;;;1.65;;
56511;SDS011;42408;53.238;5.686;2022-07-23T13:47:30;5.85;;;1.95;;
56511;SDS011;42408;53.238;5.686;2022-07-23T13:49:56;4.75;;;2.03;;
56511;SDS011;42408;53.238;5.686;2022-07-23T13:52:21;4.23;;;1.90;;
56511;SDS011;42408;53.238;5.686;2022-07-23T13:54:47;4.05;;;1.90;;
56511;SDS011;42408;53.238;5.686;2022-07-23T13:57:13;5.85;;;2.00;;
56511;SDS011;42408;53.238;5.686;2022-07-23T13:59:38;4.25;;;2.20;;
56511;SDS011;42408;53.238;5.686;2022-07-23T14:02:04;5.15;;;1.77;;
56511;SDS011;42408;53.238;5.686;2022-07-23T14:04:30;5.75;;;2.70;;
56511;SDS011;42408;53.238;5.686;2022-07-23T14:06:56;5.18;;;2.30;;
56511;SDS011;42408;53.238;5.686;2022-07-23T14:09:24;3.53;;;1.85;;
56511;SDS011;42408;53.238;5.686;2022-07-23T14:11:50;2.80;;;1.90;;
56511;SDS011;42408;53.238;5.686;2022-07-23T14:14:16;6.88;;;2.13;;
56511;SDS011;42408;53.238;5.686;2022-07-23T14:16:42;4.90;;;2.10;;
56511;SDS011;42408;53.238;5.686;2022-07-23T14:19:08;4.47;;;1.80;;
56511;SDS011;42408;53.238;5.686;2022-07-23T14:21:34;2.85;;;1.98;;
56511;SDS011;42408;53.238;5.686;2022-07-23T14:24:00;4.35;;;1.90;;
56511;SDS011;42408;53.238;5.686;2022-07-23T14:26:26;6.55;;;2.00;;
56511;SDS011;42408;53.238;5.686;2022-07-23T14:28:52;4.40;;;1.95;;
56511;SDS011;42408;53.238;5.686;2022-07-23T14:31:17;3.33;;;1.80;;
56511;SDS011;42408;53.238;5.686;2022-07-23T14:33:43;3.90;;;1.83;;
56511;SDS011;42408;53.238;5.686;2022-07-23T14:36:09;3.23;;;1.80;;
56511;SDS011;42408;53.238;5.686;2022-07-23T14:38:34;4.93;;;2.30;;
56511;SDS011;42408;53.238;5.686;2022-07-23T14:41:00;3.88;;;1.88;;
56511;SDS011;42408;53.238;5.686;2022-07-23T14:43:26;3.67;;;1.77;;
56511;SDS011;42408;53.238;5.686;2022-07-23T14:45:51;3.43;;;2.07;;
56511;SDS011;42408;53.238;5.686;2022-07-23T14:48:17;4.00;;;1.70;;
56511;SDS011;42408;53.238;5.686;2022-07-23T14:50:42;2.88;;;1.77;;
56511;SDS011;42408;53.238;5.686;2022-07-23T14:53:08;3.47;;;1.73;;
56511;SDS011;42408;53.238;5.686;2022-07-23T14:55:34;5.57;;;2.00;;
56511;SDS011;42408;53.238;5.686;2022-07-23T14:57:59;3.92;;;1.90;;
56511;SDS011;42408;53.238;5.686;2022-07-23T15:00:25;2.97;;;1.90;;
56511;SDS011;42408;53.238;5.686;2022-07-23T15:02:51;6.13;;;2.20;;
56511;SDS011;42408;53.238;5.686;2022-07-23T15:05:18;4.05;;;2.00;;
56511;SDS011;42408;53.238;5.686;2022-07-23T15:07:44;4.60;;;2.10;;
56511;SDS011;42408;53.238;5.686;2022-07-23T15:10:09;5.43;;;1.98;;
56511;SDS011;42408;53.238;5.686;2022-07-23T15:12:35;6.00;;;2.00;;
56511;SDS011;42408;53.238;5.686;2022-07-23T15:15:01;6.93;;;2.30;;
56511;SDS011;42408;53.238;5.686;2022-07-23T15:17:27;4.18;;;2.00;;
56511;SDS011;42408;53.238;5.686;2022-07-23T15:19:52;4.97;;;2.10;;
56511;SDS011;42408;53.238;5.686;2022-07-23T15:22:18;6.32;;;2.13;;
56511;SDS011;42408;53.238;5.686;2022-07-23T15:24:43;7.87;;;2.10;;
56511;SDS011;42408;53.238;5.686;2022-07-23T15:27:09;3.97;;;2.33;;
56511;SDS011;42408;53.238;5.686;2022-07-23T15:29:35;5.07;;;2.33;;
56511;SDS011;42408;53.238;5.686;2022-07-23T15:34:27;4.45;;;1.70;;
56511;SDS011;42408;53.238;5.686;2022-07-23T15:36:53;3.40;;;2.13;;
56511;SDS011;42408;53.238;5.686;2022-07-23T15:39:18;5.05;;;2.13;;
56511;SDS011;42408;53.238;5.686;2022-07-23T15:41:44;4.73;;;2.37;;
56511;SDS011;42408;53.238;5.686;2022-07-23T15:44:10;5.68;;;2.38;;
56511;SDS011;42408;53.238;5.686;2022-07-23T15:46:35;3.80;;;2.13;;
56511;SDS011;42408;53.238;5.686;2022-07-23T15:49:01;4.47;;;1.83;;
56511;SDS011;42408;53.238;5.686;2022-07-23T15:51:26;3.90;;;2.05;;
56511;SDS011;42408;53.238;5.686;2022-07-23T15:53:53;4.57;;;2.08;;
56511;SDS011;42408;53.238;5.686;2022-07-23T15:56:19;5.13;;;2.00;;